Monday, December 18, 2017, 7:53 AM EST
Back to Local

KMDT, Harrisburg International Airport

Location: Middletown, PA, United States Lat: 40.2
Local Time: 7:53 AM EST (12:53 GMT) Lon: -76.767
Time Zone: US/Eastern Elev: 308 ft

Show me the last for .
Show Decoded

2017-12-18 06:56 METAR KMDT 181156Z 30004KT 7SM OVC075 01/M02 A3011 RMK AO2 SLP200 T00111017
                 10022 20000 55004 =
2017-12-18 05:56 METAR KMDT 181056Z 31003KT 7SM OVC080 01/M02 A3011 RMK AO2 SLP199 T00061017 =
2017-12-18 04:56 METAR KMDT 180956Z 00000KT 8SM FEW050 BKN070 OVC090 02/M02 A3011 RMK AO2 SLP199
                 T00171017 =
2017-12-18 03:56 METAR KMDT 180856Z 00000KT 7SM OVC060 02/M02 A3013 RMK AO2 SLP205 T00171017
                 56005 =
2017-12-18 02:56 METAR KMDT 180756Z 30004KT 7SM OVC070 01/M02 A3013 RMK AO2 SLP206 T00111017 =
2017-12-18 01:56 METAR KMDT 180656Z 00000KT 8SM OVC070 02/M02 A3013 RMK AO2 SLP207 T00171017 =
2017-12-18 00:56 METAR KMDT 180556Z VRB03KT 9SM OVC080 02/M02 A3014 RMK AO2 SLP210 T00221017
                 10033 20017 56007 =
2017-12-17 23:56 METAR KMDT 180456Z 02003KT 7SM OVC090 02/M02 A3015 RMK AO2 SLP213 T00221017
                 400561056 =
2017-12-17 22:56 METAR KMDT 180356Z 00000KT 7SM BKN050 OVC095 02/M01 A3015 RMK AO2 SLP212
                 T00221011 =
2017-12-17 21:56 METAR KMDT 180256Z 00000KT 8SM OVC055 02/M01 A3016 RMK AO2 SLP218 T00221011
                 58012 =
2017-12-17 20:56 METAR KMDT 180156Z 00000KT 8SM BKN050 OVC090 03/M01 A3018 RMK AO2 SLP225
                 T00281011 =
2017-12-17 19:56 METAR KMDT 180056Z 00000KT 8SM BKN050 OVC090 03/M01 A3019 RMK AO2 SLP228
                 T00281011 =
2017-12-17 18:56 METAR KMDT 172356Z 00000KT 8SM BKN110 OVC160 03/M01 A3020 RMK AO2 SLP230
                 T00281011 10056 20022 50006 =
2017-12-17 17:56 METAR KMDT 172256Z 00000KT 8SM BKN150 OVC250 03/M01 A3021 RMK AO2 SLP234
                 T00331011 =
2017-12-17 16:56 METAR KMDT 172156Z 00000KT 9SM BKN150 OVC250 03/M01 A3019 RMK AO2 SLP226
                 T00331011 =
2017-12-17 15:56 METAR KMDT 172056Z 00000KT 8SM BKN170 OVC250 04/M02 A3018 RMK AO2 SLP224
                 T00441017 55012 =
2017-12-17 14:56 METAR KMDT 171956Z 00000KT 8SM BKN160 OVC250 05/M02 A3018 RMK AO2 SLP223
                 T00501017 =
2017-12-17 13:56 METAR KMDT 171856Z 22003KT 8SM SCT130 BKN250 05/M02 A3019 RMK AO2 SLP227
                 T00501017 =
2017-12-17 12:56 METAR KMDT 171756Z 00000KT 7SM SCT170 OVC250 02/M02 A3022 RMK AO2 SLP236
                 T00221017 10028 21033 58014 =
2017-12-17 11:56 METAR KMDT 171656Z 00000KT 7SM OVC170 02/M02 A3026 RMK AO2 SLP251 T00221022 =
2017-12-17 10:56 METAR KMDT 171556Z 00000KT 7SM OVC200 01/M02 A3027 RMK AO2 SLP256 T00111022 =
2017-12-17 09:56 METAR KMDT 171456Z 00000KT 6SM BR SCT200 OVC250 00/M02 A3026 RMK AO2 SLP250
                 T00001017 51007 =
2017-12-17 08:56 METAR KMDT 171356Z 00000KT 5SM BR BKN220 OVC250 M01/M02 A3025 RMK AO2 SLP248
                 T10111022 =
2017-12-17 07:56 METAR KMDT 171256Z 00000KT 6SM BR BKN220 OVC250 M02/M03 A3025 RMK AO2 SLP248
                 T10171033 =

Support USWX by starting your Amazon purchase here.